createdAt,value
2019-01-18T00:01:21.345Z,6.00
2019-01-18T00:03:49.173Z,6.10
2019-01-18T00:06:16.921Z,6.10
2019-01-18T00:08:44.656Z,6.10
2019-01-18T00:11:12.780Z,6.00
2019-01-18T00:13:40.513Z,6.00
2019-01-18T00:16:08.197Z,5.90
2019-01-18T00:18:35.918Z,5.80
2019-01-18T00:21:03.612Z,5.70
2019-01-18T00:23:31.333Z,5.60
2019-01-18T00:25:59.089Z,5.60
2019-01-18T00:28:26.829Z,5.50
2019-01-18T00:30:54.525Z,5.50
2019-01-18T00:33:22.329Z,5.50
2019-01-18T00:35:50.025Z,5.50
2019-01-18T00:38:17.745Z,5.50
2019-01-18T00:40:45.456Z,5.50
2019-01-18T00:43:13.178Z,5.60
2019-01-18T00:45:40.895Z,5.60
2019-01-18T00:48:08.588Z,5.60
2019-01-18T00:50:36.305Z,5.60
2019-01-18T00:53:04.005Z,5.60
2019-01-18T00:55:31.725Z,5.60
2019-01-18T00:57:59.425Z,5.50
2019-01-18T01:00:27.772Z,5.40
2019-01-18T01:02:55.537Z,5.40
2019-01-18T01:05:23.396Z,5.40
2019-01-18T01:07:51.096Z,5.30
2019-01-18T01:10:18.808Z,5.20
2019-01-18T01:12:46.488Z,5.10
2019-01-18T01:15:15.234Z,5.00
2019-01-18T01:17:43.070Z,4.90
2019-01-18T01:20:11.969Z,5.00
2019-01-18T01:22:39.688Z,5.00
2019-01-18T01:25:07.573Z,5.00
2019-01-18T01:27:35.269Z,5.10
2019-01-18T01:30:04.953Z,5.20
2019-01-18T01:32:32.661Z,5.30
2019-01-18T01:35:00.380Z,5.40
2019-01-18T01:37:28.068Z,5.50
2019-01-18T01:39:55.794Z,5.60
2019-01-18T01:42:23.485Z,5.70
2019-01-18T01:44:51.198Z,5.80
2019-01-18T01:47:18.902Z,5.90
2019-01-18T01:49:46.622Z,6.00
2019-01-18T01:52:14.332Z,6.10
2019-01-18T01:54:42.133Z,6.10
2019-01-18T01:57:09.849Z,6.10
2019-01-18T01:59:37.549Z,6.20
2019-01-18T02:02:05.284Z,6.20
2019-01-18T02:04:32.981Z,6.20
2019-01-18T02:07:00.693Z,6.20
2019-01-18T02:09:28.388Z,6.10
2019-01-18T02:11:56.106Z,6.10
2019-01-18T02:14:23.807Z,6.10
2019-01-18T02:16:51.520Z,6.10
2019-01-18T02:19:19.241Z,6.10
2019-01-18T02:21:46.977Z,6.00
2019-01-18T02:24:14.677Z,6.00
2019-01-18T02:26:42.443Z,5.80
2019-01-18T02:29:10.141Z,5.80
2019-01-18T02:31:37.873Z,5.80
2019-01-18T02:34:05.584Z,5.70
2019-01-18T02:36:33.413Z,5.80
2019-01-18T02:39:01.122Z,5.80
2019-01-18T02:41:28.842Z,5.80
2019-01-18T02:43:56.538Z,5.90
2019-01-18T02:46:24.261Z,5.90
2019-01-18T02:48:51.969Z,5.90
2019-01-18T02:51:19.712Z,6.00
2019-01-18T02:53:47.421Z,6.00
2019-01-18T02:56:15.117Z,6.00
2019-01-18T02:58:42.833Z,5.80
2019-01-18T03:01:10.524Z,5.70
2019-01-18T03:03:38.144Z,5.70
2019-01-18T03:06:05.836Z,5.70
2019-01-18T03:08:33.532Z,5.60
2019-01-18T03:11:01.274Z,5.60
2019-01-18T03:13:28.974Z,5.50
2019-01-18T03:15:56.678Z,5.30
2019-01-18T03:18:24.418Z,5.20
2019-01-18T03:20:52.174Z,5.30
2019-01-18T03:23:19.888Z,5.30
2019-01-18T03:25:47.730Z,5.40
2019-01-18T03:28:15.428Z,5.40
2019-01-18T03:30:43.166Z,5.30
2019-01-18T03:33:10.990Z,5.30
2019-01-18T03:35:38.698Z,5.40
2019-01-18T03:38:06.393Z,5.40
2019-01-18T03:40:34.454Z,5.50
2019-01-18T03:43:02.158Z,5.50
2019-01-18T03:45:29.862Z,5.40
2019-01-18T03:47:57.582Z,5.20
2019-01-18T03:50:26.189Z,5.20
2019-01-18T03:52:53.914Z,4.90
2019-01-18T03:55:21.681Z,5.00
2019-01-18T03:57:49.363Z,5.00
2019-01-18T04:00:26.179Z,5.00
2019-01-18T04:02:54.516Z,4.90
2019-01-18T04:05:22.486Z,4.90
2019-01-18T04:07:50.180Z,4.90
2019-01-18T04:10:18.234Z,4.90
2019-01-18T04:12:45.948Z,4.90
2019-01-18T04:15:15.041Z,5.00
2019-01-18T04:17:42.741Z,4.90
2019-01-18T04:20:11.094Z,4.90
2019-01-18T04:22:38.810Z,4.70
2019-01-18T04:25:08.247Z,4.60
2019-01-18T04:27:36.002Z,4.60
2019-01-18T04:30:04.713Z,4.60
2019-01-18T04:32:32.414Z,4.60
2019-01-18T04:35:00.286Z,4.60
2019-01-18T04:37:27.944Z,4.60
2019-01-18T04:39:55.660Z,4.70
2019-01-18T04:42:23.374Z,4.70
2019-01-18T04:44:51.071Z,4.60
2019-01-18T04:47:18.781Z,4.60
2019-01-18T04:49:46.474Z,4.70
2019-01-18T04:52:14.188Z,4.60
2019-01-18T04:54:41.890Z,4.50
2019-01-18T04:57:09.593Z,4.50
2019-01-18T04:59:37.305Z,4.40
2019-01-18T05:02:04.997Z,4.30
2019-01-18T05:04:32.716Z,4.20
2019-01-18T05:07:00.422Z,4.30
2019-01-18T05:09:28.171Z,4.30
2019-01-18T05:11:55.945Z,4.30
2019-01-18T05:14:23.589Z,4.40
2019-01-18T05:16:51.277Z,4.30
2019-01-18T05:19:18.993Z,4.30
2019-01-18T05:21:46.688Z,4.20
2019-01-18T05:24:14.396Z,4.30
2019-01-18T05:26:42.110Z,4.40
2019-01-18T05:29:09.869Z,4.30
2019-01-18T05:31:37.586Z,4.30
2019-01-18T05:34:05.287Z,4.20
2019-01-18T05:36:32.998Z,4.30
2019-01-18T05:39:00.738Z,4.40
2019-01-18T05:41:28.479Z,4.30
2019-01-18T05:43:56.161Z,4.30
2019-01-18T05:46:23.892Z,4.20
2019-01-18T05:48:51.573Z,4.20
2019-01-18T05:51:19.290Z,4.30
2019-01-18T05:53:47.202Z,4.50
2019-01-18T05:56:14.910Z,4.50
2019-01-18T05:58:42.601Z,4.70
2019-01-18T06:01:11.793Z,4.70
2019-01-18T06:03:39.490Z,4.80
2019-01-18T06:06:07.197Z,4.90
2019-01-18T06:08:34.888Z,4.90
2019-01-18T06:11:02.602Z,5.00
2019-01-18T06:13:30.324Z,5.00
2019-01-18T06:15:58.054Z,5.10
2019-01-18T06:18:25.755Z,5.10
2019-01-18T06:20:53.470Z,5.20
2019-01-18T06:23:21.170Z,5.10
2019-01-18T06:25:48.886Z,5.00
2019-01-18T06:28:16.605Z,5.00
2019-01-18T06:30:44.307Z,4.90
2019-01-18T06:33:12.025Z,4.80
2019-01-18T06:35:39.727Z,4.80
2019-01-18T06:38:07.442Z,4.80
2019-01-18T06:40:35.136Z,4.90
2019-01-18T06:43:02.869Z,4.90
2019-01-18T06:45:31.095Z,4.90
2019-01-18T06:47:58.800Z,5.00
2019-01-18T06:50:26.501Z,5.00
2019-01-18T06:52:54.225Z,5.10
2019-01-18T06:55:21.936Z,5.10
2019-01-18T06:57:49.663Z,5.00
2019-01-18T07:00:28.544Z,5.00
2019-01-18T07:02:56.281Z,4.90
2019-01-18T07:05:23.977Z,4.80
2019-01-18T07:07:51.676Z,4.60
2019-01-18T07:10:20.882Z,4.50
2019-01-18T07:12:48.882Z,4.50
2019-01-18T07:15:16.692Z,4.40
2019-01-18T07:17:44.415Z,4.40
2019-01-18T07:20:13.465Z,4.50
2019-01-18T07:22:41.219Z,4.60
2019-01-18T07:25:12.277Z,4.80
2019-01-18T07:27:40.133Z,4.90
2019-01-18T07:30:14.287Z,5.00
2019-01-18T07:32:42.024Z,5.10
2019-01-18T07:35:09.742Z,5.10
2019-01-18T07:37:37.489Z,5.20
2019-01-18T07:40:06.006Z,5.20
2019-01-18T07:42:33.734Z,5.30
2019-01-18T07:45:01.488Z,5.40
2019-01-18T07:47:29.186Z,5.50
2019-01-18T07:49:56.932Z,5.60
2019-01-18T07:52:24.636Z,5.60
2019-01-18T07:54:52.373Z,5.70
2019-01-18T07:57:20.091Z,5.80
2019-01-18T07:59:48.553Z,5.80
2019-01-18T08:02:16.290Z,5.80
2019-01-18T08:04:44.028Z,5.80
2019-01-18T08:07:11.745Z,5.80
2019-01-18T08:09:39.493Z,5.80
2019-01-18T08:12:07.122Z,5.90
2019-01-18T08:14:35.090Z,5.80
2019-01-18T08:17:02.823Z,5.70
2019-01-18T08:19:30.575Z,5.50
2019-01-18T08:21:58.310Z,5.40
2019-01-18T08:24:26.102Z,5.30
2019-01-18T08:26:53.841Z,5.20
2019-01-18T08:29:21.573Z,5.20
2019-01-18T08:31:49.286Z,5.20
2019-01-18T08:34:17.016Z,5.10
2019-01-18T08:36:44.741Z,5.20
2019-01-18T08:39:12.468Z,5.20
2019-01-18T08:41:40.170Z,5.30
2019-01-18T08:44:07.906Z,5.40
2019-01-18T08:46:36.030Z,5.30
2019-01-18T08:49:03.772Z,5.40
2019-01-18T08:51:31.492Z,5.50
2019-01-18T08:53:59.228Z,5.60
2019-01-18T08:56:26.953Z,5.70
2019-01-18T08:58:54.701Z,5.70
2019-01-18T09:01:22.478Z,5.80
2019-01-18T09:03:50.222Z,5.80
2019-01-18T09:06:17.955Z,5.70
2019-01-18T09:08:45.664Z,5.80
2019-01-18T09:11:13.389Z,5.90
2019-01-18T09:13:41.092Z,6.00
2019-01-18T09:16:08.829Z,6.20
2019-01-18T09:18:36.629Z,6.30
2019-01-18T09:21:04.369Z,6.30
2019-01-18T09:23:32.071Z,6.40
2019-01-18T09:25:59.823Z,6.40
2019-01-18T09:28:27.601Z,6.40
2019-01-18T09:30:55.334Z,6.60
2019-01-18T09:33:23.038Z,6.60
2019-01-18T09:35:50.881Z,6.70
2019-01-18T09:38:18.585Z,6.80
2019-01-18T09:40:46.365Z,6.90
2019-01-18T09:43:14.071Z,7.00
2019-01-18T09:45:41.820Z,7.00
2019-01-18T09:48:10.190Z,7.10
2019-01-18T09:50:37.937Z,7.10
2019-01-18T09:53:07.378Z,7.10
2019-01-18T09:55:35.449Z,7.00
2019-01-18T09:58:03.337Z,7.00
2019-01-18T10:00:32.971Z,7.10
2019-01-18T10:03:01.063Z,7.20
2019-01-18T10:05:29.695Z,7.30
2019-01-18T10:07:57.406Z,7.20
2019-01-18T10:10:25.136Z,7.20
2019-01-18T10:12:52.891Z,7.30
2019-01-18T10:15:41.166Z,7.30
2019-01-18T10:18:08.949Z,7.40
2019-01-18T10:20:36.733Z,7.30
2019-01-18T10:23:04.607Z,7.30
2019-01-18T10:25:32.328Z,7.40
2019-01-18T10:28:00.572Z,7.50
2019-01-18T10:30:28.321Z,7.60
2019-01-18T10:32:56.098Z,7.60
2019-01-18T10:35:23.855Z,7.60
2019-01-18T10:37:51.581Z,7.50
2019-01-18T10:40:19.365Z,7.50
2019-01-18T10:42:47.629Z,7.40
2019-01-18T10:45:15.341Z,7.40
2019-01-18T10:47:43.109Z,7.40
2019-01-18T10:50:15.754Z,7.40
2019-01-18T10:52:43.530Z,7.40
2019-01-18T10:55:11.277Z,7.40
2019-01-18T10:57:39.010Z,7.30
2019-01-18T11:00:12.785Z,7.30
2019-01-18T11:02:40.497Z,7.30
2019-01-18T11:05:08.741Z,7.20
2019-01-18T11:07:36.635Z,7.20
2019-01-18T11:10:05.265Z,7.20
2019-01-18T11:12:32.981Z,7.30
2019-01-18T11:15:00.753Z,7.30
2019-01-18T11:17:28.481Z,7.40
2019-01-18T11:19:56.231Z,7.40
2019-01-18T11:22:23.962Z,7.40
2019-01-18T11:24:51.737Z,7.40
2019-01-18T11:27:19.468Z,7.40
2019-01-18T11:29:47.214Z,7.50
2019-01-18T11:32:14.959Z,7.50
2019-01-18T11:34:42.678Z,7.50
2019-01-18T11:37:10.485Z,7.50
2019-01-18T11:39:38.213Z,7.40
2019-01-18T11:42:06.010Z,7.40
2019-01-18T11:44:33.739Z,7.40
2019-01-18T11:47:01.488Z,7.10
2019-01-18T11:49:29.213Z,7.10
2019-01-18T11:51:57.107Z,7.00
2019-01-18T11:54:24.833Z,7.00
2019-01-18T11:56:52.528Z,7.00
2019-01-18T11:59:20.260Z,7.10
2019-01-18T12:01:47.961Z,7.20
2019-01-18T12:04:15.685Z,7.40
2019-01-18T12:06:43.384Z,7.70
2019-01-18T12:09:18.829Z,7.90
2019-01-18T12:11:46.536Z,8.00
2019-01-18T12:14:14.247Z,8.20
2019-01-18T12:16:41.980Z,8.30
2019-01-18T12:19:09.706Z,8.50
2019-01-18T12:21:37.417Z,8.70
2019-01-18T12:24:06.417Z,8.60
2019-01-18T12:26:34.163Z,8.50
2019-01-18T12:29:01.925Z,8.60
2019-01-18T12:31:29.761Z,8.70
2019-01-18T12:33:57.482Z,8.60
2019-01-18T12:36:25.181Z,8.30
2019-01-18T12:38:53.133Z,8.40
2019-01-18T12:41:20.805Z,8.50
2019-01-18T12:43:48.690Z,8.80
2019-01-18T12:46:16.507Z,8.90
2019-01-18T12:48:44.214Z,8.80
2019-01-18T12:51:11.921Z,9.00
2019-01-18T12:53:39.685Z,9.10
2019-01-18T12:56:07.538Z,9.40
2019-01-18T12:58:35.369Z,9.40
2019-01-18T13:01:03.198Z,9.40
2019-01-18T13:03:30.897Z,9.10
2019-01-18T13:05:58.617Z,9.00
2019-01-18T13:08:26.313Z,8.90
2019-01-18T13:10:54.031Z,8.80
2019-01-18T13:13:21.721Z,8.80
2019-01-18T13:16:28.737Z,8.70
2019-01-18T13:18:59.259Z,8.60
2019-01-18T13:21:26.998Z,8.70
2019-01-18T13:23:54.705Z,8.70
2019-01-18T13:26:22.429Z,8.80
2019-01-18T13:28:50.157Z,8.70
2019-01-18T13:31:17.877Z,8.70
2019-01-18T13:33:45.582Z,8.80
2019-01-18T13:36:15.077Z,9.20
2019-01-18T13:38:42.834Z,9.20
2019-01-18T13:41:10.546Z,9.10
2019-01-18T13:43:38.232Z,9.00
2019-01-18T13:46:06.030Z,9.10
2019-01-18T13:48:33.733Z,9.10
2019-01-18T13:51:01.462Z,9.20
2019-01-18T13:53:29.173Z,9.40
2019-01-18T13:55:56.906Z,9.40
2019-01-18T13:58:24.605Z,9.60
2019-01-18T14:00:52.323Z,9.80
2019-01-18T14:03:20.018Z,10.20
2019-01-18T14:05:47.757Z,10.30
2019-01-18T14:08:15.461Z,10.40
2019-01-18T14:10:43.207Z,10.40
2019-01-18T14:13:10.889Z,10.40
2019-01-18T14:15:38.633Z,10.30
2019-01-18T14:18:06.361Z,10.20
2019-01-18T14:20:34.081Z,10.00
2019-01-18T14:23:01.810Z,9.90
2019-01-18T14:25:29.548Z,10.00
2019-01-18T14:27:57.269Z,10.10
2019-01-18T14:30:25.232Z,10.10
2019-01-18T14:32:55.508Z,9.90
2019-01-18T14:35:22.757Z,9.60
2019-01-18T14:37:50.544Z,9.60
2019-01-18T14:40:18.337Z,9.60
2019-01-18T14:42:46.112Z,9.50
2019-01-18T14:45:16.929Z,9.30
2019-01-18T14:47:44.692Z,9.20
2019-01-18T14:50:15.500Z,9.10
2019-01-18T14:52:43.418Z,9.20
2019-01-18T14:55:11.249Z,9.00
2019-01-18T14:57:39.030Z,8.90
2019-01-18T15:00:11.529Z,8.70
2019-01-18T15:02:39.277Z,8.50
2019-01-18T15:05:08.302Z,8.50
2019-01-18T15:07:36.061Z,8.20
2019-01-18T15:10:05.228Z,8.20
2019-01-18T15:12:33.105Z,8.20
2019-01-18T15:15:00.801Z,8.10
2019-01-18T15:17:34.511Z,8.10
2019-01-18T15:19:58.073Z,8.00
2019-01-18T15:22:25.769Z,7.90
2019-01-18T15:24:53.476Z,7.80
2019-01-18T15:27:21.193Z,7.70
2019-01-18T15:29:48.937Z,7.80
2019-01-18T15:32:16.662Z,7.90
2019-01-18T15:34:44.373Z,7.90
2019-01-18T15:37:12.099Z,7.80
2019-01-18T15:39:39.793Z,7.80
2019-01-18T15:42:07.957Z,7.90
2019-01-18T15:44:35.749Z,7.90
2019-01-18T15:47:03.447Z,7.90
2019-01-18T15:49:31.154Z,8.00
2019-01-18T15:51:58.873Z,7.90
2019-01-18T15:54:26.589Z,7.90
2019-01-18T15:56:54.300Z,7.90
2019-01-18T15:59:22.017Z,7.90
2019-01-18T16:01:49.736Z,7.90
2019-01-18T16:04:17.441Z,7.90
2019-01-18T16:06:45.170Z,7.80
2019-01-18T16:09:12.889Z,7.80
2019-01-18T16:11:41.511Z,7.80
2019-01-18T16:14:09.225Z,7.90
2019-01-18T16:16:44.928Z,7.90
2019-01-18T16:19:12.641Z,7.90
2019-01-18T16:21:40.356Z,7.90
2019-01-18T16:24:08.085Z,7.90
2019-01-18T16:26:35.853Z,8.00
2019-01-18T16:29:03.554Z,8.00
2019-01-18T16:31:31.325Z,8.00
2019-01-18T16:33:59.058Z,8.10
2019-01-18T16:36:26.758Z,8.10
2019-01-18T16:38:54.478Z,8.10
2019-01-18T16:41:22.173Z,8.10
2019-01-18T16:43:49.901Z,8.10
2019-01-18T16:46:17.685Z,8.10
2019-01-18T16:48:45.475Z,8.10
2019-01-18T16:51:13.241Z,8.20
2019-01-18T16:53:40.945Z,8.10
2019-01-18T16:56:08.681Z,8.10
2019-01-18T16:58:37.377Z,8.00
2019-01-18T17:01:06.754Z,7.90
2019-01-18T17:03:34.454Z,7.80
2019-01-18T17:06:02.177Z,7.80
2019-01-18T17:08:30.917Z,7.80
2019-01-18T17:10:58.652Z,7.80
2019-01-18T17:13:28.807Z,7.80
2019-01-18T17:15:56.504Z,7.70
2019-01-18T17:18:24.609Z,7.80
2019-01-18T17:20:52.326Z,7.70
2019-01-18T17:23:20.025Z,7.80
2019-01-18T17:25:47.758Z,7.80
2019-01-18T17:28:15.501Z,7.80
2019-01-18T17:30:43.397Z,7.90
2019-01-18T17:33:11.058Z,7.80
2019-01-18T17:35:41.805Z,7.80
2019-01-18T17:38:31.530Z,7.70
2019-01-18T17:41:15.925Z,7.70
2019-01-18T17:44:14.893Z,7.60
2019-01-18T17:47:17.724Z,7.50
2019-01-18T17:50:41.962Z,7.50
2019-01-18T17:53:37.313Z,7.50
2019-01-18T17:56:48.773Z,7.40
2019-01-18T17:59:45.243Z,7.40
2019-01-18T18:03:00.073Z,7.50
2019-01-18T18:06:01.800Z,7.40
2019-01-18T18:08:59.177Z,7.40
2019-01-18T18:12:07.240Z,7.40
2019-01-18T18:15:01.365Z,7.40
2019-01-18T18:17:47.297Z,7.50
2019-01-18T18:20:55.720Z,7.60
2019-01-18T18:24:14.355Z,7.70
2019-01-18T18:27:44.250Z,7.70
2019-01-18T18:30:45.933Z,7.60
2019-01-18T18:34:13.468Z,7.50
2019-01-18T18:36:57.244Z,7.60
2019-01-18T18:39:57.037Z,7.60
2019-01-18T18:43:06.017Z,7.60
2019-01-18T18:46:14.168Z,7.60
2019-01-18T18:49:32.652Z,7.70
2019-01-18T18:52:38.253Z,7.70
2019-01-18T18:55:47.748Z,7.70
2019-01-18T18:58:27.419Z,7.70
2019-01-18T19:01:24.693Z,7.60
2019-01-18T19:04:21.439Z,7.70
2019-01-18T19:07:21.960Z,7.70
2019-01-18T19:10:43.384Z,7.70
2019-01-18T19:13:33.417Z,7.70
2019-01-18T19:16:54.854Z,7.60
2019-01-18T19:19:59.241Z,7.60
2019-01-18T19:22:45.781Z,7.60
2019-01-18T19:26:09.605Z,7.60
2019-01-18T19:29:16.177Z,7.50
2019-01-18T19:32:07.405Z,7.60
2019-01-18T19:35:06.776Z,7.60
2019-01-18T19:38:15.917Z,7.60
2019-01-18T19:41:16.182Z,7.60
2019-01-18T19:44:09.878Z,7.60
2019-01-18T19:47:10.972Z,7.60
2019-01-18T19:49:58.690Z,7.60
2019-01-18T19:52:51.460Z,7.50
2019-01-18T19:55:57.894Z,7.40
2019-01-18T19:58:50.053Z,7.30
2019-01-18T20:01:51.046Z,7.30
2019-01-18T20:04:54.213Z,7.30
2019-01-18T20:08:00.177Z,7.30
2019-01-18T20:11:22.437Z,7.40
2019-01-18T20:14:31.933Z,7.40
2019-01-18T20:17:40.728Z,7.50
2019-01-18T20:20:49.030Z,7.50
2019-01-18T20:23:57.585Z,7.50
2019-01-18T20:27:12.866Z,7.50
2019-01-18T20:30:14.869Z,7.40
2019-01-18T20:33:19.600Z,7.50
2019-01-18T20:36:25.427Z,7.50
2019-01-18T20:39:45.137Z,7.50
2019-01-18T20:42:36.205Z,7.50
2019-01-18T20:45:33.853Z,7.50
2019-01-18T20:49:01.108Z,7.50
2019-01-18T20:52:01.357Z,7.50
2019-01-18T20:55:37.773Z,7.50
2019-01-18T20:58:40.574Z,7.50
2019-01-18T21:01:49.761Z,7.50
2019-01-18T21:04:49.541Z,7.50
2019-01-18T21:07:54.602Z,7.40
2019-01-18T21:10:35.549Z,7.30
2019-01-18T21:13:37.562Z,7.20
2019-01-18T21:16:48.876Z,7.20
2019-01-18T21:20:19.441Z,7.30
2019-01-18T21:23:36.625Z,7.30
2019-01-18T21:26:31.050Z,7.30
2019-01-18T21:29:27.693Z,7.40
2019-01-18T21:32:20.453Z,7.40
2019-01-18T21:35:28.951Z,7.40
2019-01-18T21:38:44.217Z,7.30
2019-01-18T21:41:21.829Z,7.30
2019-01-18T21:44:28.339Z,7.30
2019-01-18T21:47:48.578Z,7.20
2019-01-18T21:51:03.344Z,7.10
2019-01-18T21:54:12.833Z,7.10
2019-01-18T21:57:16.742Z,6.90
2019-01-18T22:00:16.035Z,6.90
2019-01-18T22:03:17.585Z,6.90
2019-01-18T22:06:10.308Z,6.90
2019-01-18T22:09:25.490Z,6.90
2019-01-18T22:12:42.739Z,7.00
2019-01-18T22:15:36.324Z,6.90
2019-01-18T22:18:39.401Z,6.90
2019-01-18T22:21:35.250Z,6.90
2019-01-18T22:24:27.773Z,6.80
2019-01-18T22:27:23.173Z,6.90
2019-01-18T22:30:30.117Z,6.90
2019-01-18T22:33:39.699Z,6.90
2019-01-18T22:36:37.638Z,6.90
2019-01-18T22:39:26.842Z,7.00
2019-01-18T22:42:43.533Z,7.10
2019-01-18T22:45:43.713Z,7.10
2019-01-18T22:48:34.733Z,7.00
2019-01-18T22:51:53.018Z,7.10
2019-01-18T22:54:49.816Z,7.00
2019-01-18T22:58:23.546Z,6.90
2019-01-18T23:01:35.638Z,6.80
2019-01-18T23:04:46.929Z,6.80
2019-01-18T23:07:58.248Z,6.80
2019-01-18T23:10:52.626Z,6.90
2019-01-18T23:14:23.521Z,7.00
2019-01-18T23:17:57.377Z,7.00
2019-01-18T23:21:00.606Z,7.10
2019-01-18T23:24:05.436Z,7.00
2019-01-18T23:27:05.091Z,7.00
2019-01-18T23:29:50.809Z,7.10
2019-01-18T23:33:09.217Z,7.10
2019-01-18T23:36:10.829Z,7.10
2019-01-18T23:39:41.461Z,7.00
2019-01-18T23:42:31.604Z,6.90
2019-01-18T23:45:21.922Z,6.80
2019-01-18T23:48:18.457Z,6.70
2019-01-18T23:51:11.297Z,6.70
2019-01-18T23:53:57.037Z,6.70
2019-01-18T23:56:35.636Z,6.80
2019-01-18T23:59:29.614Z,6.90
